sensor_id;sensor_type;location;lat;lon;timestamp;pressure;altitude;pressure_sealevel;temperature;humidity
60465;BME280;46314;52.392;9.758;2023-02-28T00:00:27;102418.38;;;2.55;65.11
60465;BME280;46314;52.392;9.758;2023-02-28T00:02:54;102421.44;;;2.87;64.92
60465;BME280;46314;52.392;9.758;2023-02-28T00:05:22;102416.59;;;2.96;64.71
60465;BME280;46314;52.392;9.758;2023-02-28T00:07:50;102427.91;;;2.79;64.37
60465;BME280;46314;52.392;9.758;2023-02-28T00:10:18;102418.88;;;2.86;64.64
60465;BME280;46314;52.392;9.758;2023-02-28T00:12:45;102424.38;;;2.37;65.03
60465;BME280;46314;52.392;9.758;2023-02-28T00:15:12;102420.50;;;2.67;65.04
60465;BME280;46314;52.392;9.758;2023-02-28T00:17:38;102416.97;;;2.79;64.77
60465;BME280;46314;52.392;9.758;2023-02-28T00:20:06;102407.94;;;2.86;63.74
60465;BME280;46314;52.392;9.758;2023-02-28T00:22:33;102413.84;;;2.41;65.20
60465;BME280;46314;52.392;9.758;2023-02-28T00:25:02;102414.75;;;2.48;65.29
60465;BME280;46314;52.392;9.758;2023-02-28T00:27:28;102417.53;;;2.20;65.43
60465;BME280;46314;52.392;9.758;2023-02-28T00:29:55;102411.66;;;2.23;66.00
60465;BME280;46314;52.392;9.758;2023-02-28T00:32:21;102416.91;;;2.18;65.72
60465;BME280;46314;52.392;9.758;2023-02-28T00:34:48;102412.09;;;2.26;65.45
60465;BME280;46314;52.392;9.758;2023-02-28T00:37:14;102413.69;;;2.49;65.25
60465;BME280;46314;52.392;9.758;2023-02-28T00:39:40;102411.56;;;2.44;65.98
60465;BME280;46314;52.392;9.758;2023-02-28T00:42:08;102409.28;;;2.55;64.27
60465;BME280;46314;52.392;9.758;2023-02-28T00:44:34;102414.59;;;2.21;66.28
60465;BME280;46314;52.392;9.758;2023-02-28T00:47:01;102411.63;;;2.58;65.27
60465;BME280;46314;52.392;9.758;2023-02-28T00:49:27;102408.19;;;2.42;65.13
60465;BME280;46314;52.392;9.758;2023-02-28T00:51:55;102408.81;;;2.44;66.00
60465;BME280;46314;52.392;9.758;2023-02-28T00:54:22;102412.22;;;2.46;65.44
60465;BME280;46314;52.392;9.758;2023-02-28T00:56:49;102406.63;;;2.26;65.92
60465;BME280;46314;52.392;9.758;2023-02-28T00:59:17;102414.59;;;2.21;66.12
60465;BME280;46314;52.392;9.758;2023-02-28T01:01:45;102412.97;;;2.27;66.41
60465;BME280;46314;52.392;9.758;2023-02-28T01:04:12;102422.81;;;2.15;66.52
60465;BME280;46314;52.392;9.758;2023-02-28T01:06:39;102415.16;;;2.45;65.68
60465;BME280;46314;52.392;9.758;2023-02-28T01:09:07;102414.47;;;2.36;65.99
60465;BME280;46314;52.392;9.758;2023-02-28T01:11:34;102423.22;;;2.60;65.00
60465;BME280;46314;52.392;9.758;2023-02-28T01:14:01;102416.97;;;2.79;64.70
60465;BME280;46314;52.392;9.758;2023-02-28T01:16:29;102411.03;;;2.62;64.96
60465;BME280;46314;52.392;9.758;2023-02-28T01:18:56;102413.91;;;2.47;65.58
60465;BME280;46314;52.392;9.758;2023-02-28T01:21:23;102417.47;;;2.06;66.84
60465;BME280;46314;52.392;9.758;2023-02-28T01:23:50;102416.94;;;1.89;67.51
60465;BME280;46314;52.392;9.758;2023-02-28T01:26:18;102419.78;;;2.44;66.20
60465;BME280;46314;52.392;9.758;2023-02-28T01:28:45;102418.38;;;2.55;65.06
60465;BME280;46314;52.392;9.758;2023-02-28T01:31:12;102418.38;;;2.62;65.08
60465;BME280;46314;52.392;9.758;2023-02-28T01:33:40;102412.22;;;2.46;65.57
60465;BME280;46314;52.392;9.758;2023-02-28T01:36:09;102424.31;;;1.89;66.57
60465;BME280;46314;52.392;9.758;2023-02-28T01:38:37;102423.00;;;2.20;66.52
60465;BME280;46314;52.392;9.758;2023-02-28T01:41:04;102413.59;;;2.29;65.73
60465;BME280;46314;52.392;9.758;2023-02-28T01:43:39;102416.34;;;1.94;67.13
60465;BME280;46314;52.392;9.758;2023-02-28T01:46:18;102420.69;;;1.82;67.64
60465;BME280;46314;52.392;9.758;2023-02-28T01:48:48;102418.69;;;1.97;66.91
60465;BME280;46314;52.392;9.758;2023-02-28T01:51:21;102410.69;;;1.96;66.98
60465;BME280;46314;52.392;9.758;2023-02-28T01:53:51;102412.97;;;1.64;68.20
60465;BME280;46314;52.392;9.758;2023-02-28T01:56:22;102416.59;;;1.71;68.12
60465;BME280;46314;52.392;9.758;2023-02-28T01:58:51;102422.16;;;1.56;68.73
60465;BME280;46314;52.392;9.758;2023-02-28T02:01:18;102418.72;;;1.47;68.01
60465;BME280;46314;52.392;9.758;2023-02-28T02:03:47;102413.25;;;1.76;67.99
60465;BME280;46314;52.392;9.758;2023-02-28T02:06:13;102415.22;;;2.17;66.25
60465;BME280;46314;52.392;9.758;2023-02-28T02:08:40;102403.00;;;2.19;66.00
60465;BME280;46314;52.392;9.758;2023-02-28T02:11:08;102412.53;;;1.60;68.12
60465;BME280;46314;52.392;9.758;2023-02-28T02:13:53;102413.94;;;1.78;67.61
60465;BME280;46314;52.392;9.758;2023-02-28T02:16:34;102409.03;;;1.45;68.24
60465;BME280;46314;52.392;9.758;2023-02-28T02:19:17;102411.66;;;1.60;68.11
60465;BME280;46314;52.392;9.758;2023-02-28T02:22:12;102407.16;;;1.74;68.18
60465;BME280;46314;52.392;9.758;2023-02-28T02:24:55;102400.13;;;1.36;70.12
60465;BME280;46314;52.392;9.758;2023-02-28T02:27:33;102398.06;;;2.01;67.63
60465;BME280;46314;52.392;9.758;2023-02-28T02:30:32;102399.69;;;1.89;67.42
60465;BME280;46314;52.392;9.758;2023-02-28T02:33:19;102394.75;;;2.06;67.29
60465;BME280;46314;52.392;9.758;2023-02-28T02:35:54;102400.06;;;1.86;68.04
60465;BME280;46314;52.392;9.758;2023-02-28T02:38:32;102398.09;;;1.45;69.34
60465;BME280;46314;52.392;9.758;2023-02-28T02:41:05;102399.53;;;1.97;68.16
60465;BME280;46314;52.392;9.758;2023-02-28T02:43:36;102400.97;;;1.93;67.90
60465;BME280;46314;52.392;9.758;2023-02-28T02:46:08;102391.38;;;2.11;67.11
60465;BME280;46314;52.392;9.758;2023-02-28T02:48:38;102396.06;;;2.17;66.89
60465;BME280;46314;52.392;9.758;2023-02-28T02:51:12;102396.06;;;2.17;66.79
60465;BME280;46314;52.392;9.758;2023-02-28T02:53:41;102404.31;;;2.23;65.84
60465;BME280;46314;52.392;9.758;2023-02-28T02:56:08;102403.22;;;2.18;66.06
60465;BME280;46314;52.392;9.758;2023-02-28T02:58:37;102402.41;;;2.24;65.76
60465;BME280;46314;52.392;9.758;2023-02-28T03:01:06;102400.66;;;2.10;65.79
60465;BME280;46314;52.392;9.758;2023-02-28T03:03:34;102403.06;;;1.91;66.25
60465;BME280;46314;52.392;9.758;2023-02-28T03:06:01;102403.56;;;2.01;66.33
60465;BME280;46314;52.392;9.758;2023-02-28T03:08:36;102405.44;;;2.01;66.17
60465;BME280;46314;52.392;9.758;2023-02-28T03:11:05;102400.28;;;1.84;66.46
60465;BME280;46314;52.392;9.758;2023-02-28T03:13:41;102397.72;;;1.83;66.72
60465;BME280;46314;52.392;9.758;2023-02-28T03:16:26;102393.31;;;1.82;67.23
60465;BME280;46314;52.392;9.758;2023-02-28T03:19:01;102388.94;;;1.87;66.49
60465;BME280;46314;52.392;9.758;2023-02-28T03:21:34;102391.97;;;1.99;66.37
60465;BME280;46314;52.392;9.758;2023-02-28T03:24:07;102394.56;;;1.51;67.34
60465;BME280;46314;52.392;9.758;2023-02-28T03:26:39;102397.09;;;1.52;67.97
60465;BME280;46314;52.392;9.758;2023-02-28T03:29:12;102394.34;;;1.81;66.67
60465;BME280;46314;52.392;9.758;2023-02-28T03:31:42;102383.34;;;1.18;68.17
60465;BME280;46314;52.392;9.758;2023-02-28T03:34:14;102388.16;;;1.65;67.24
60465;BME280;46314;52.392;9.758;2023-02-28T03:36:46;102383.09;;;1.62;67.13
60465;BME280;46314;52.392;9.758;2023-02-28T03:39:17;102385.88;;;1.41;67.46
60465;BME280;46314;52.392;9.758;2023-02-28T03:41:47;102399.38;;;1.49;67.60
60465;BME280;46314;52.392;9.758;2023-02-28T03:44:17;102391.47;;;0.89;69.47
60465;BME280;46314;52.392;9.758;2023-02-28T03:46:57;102383.91;;;0.91;70.04
60465;BME280;46314;52.392;9.758;2023-02-28T03:49:28;102388.09;;;1.30;68.69
60465;BME280;46314;52.392;9.758;2023-02-28T03:51:58;102392.13;;;1.63;67.18
60465;BME280;46314;52.392;9.758;2023-02-28T03:54:30;102392.25;;;1.48;67.43
60465;BME280;46314;52.392;9.758;2023-02-28T03:57:02;102391.88;;;1.58;67.51
60465;BME280;46314;52.392;9.758;2023-02-28T03:59:34;102392.19;;;1.69;66.74
60465;BME280;46314;52.392;9.758;2023-02-28T04:02:03;102388.31;;;1.57;67.10
60465;BME280;46314;52.392;9.758;2023-02-28T04:04:29;102398.31;;;1.22;67.62
60465;BME280;46314;52.392;9.758;2023-02-28T04:07:01;102392.25;;;1.26;68.36
60465;BME280;46314;52.392;9.758;2023-02-28T04:09:29;102388.53;;;1.12;68.54
60465;BME280;46314;52.392;9.758;2023-02-28T04:11:56;102387.97;;;1.17;68.39
60465;BME280;46314;52.392;9.758;2023-02-28T04:14:22;102399.44;;;1.06;68.67
60465;BME280;46314;52.392;9.758;2023-02-28T04:16:49;102399.00;;;0.87;69.20
60465;BME280;46314;52.392;9.758;2023-02-28T04:19:16;102398.94;;;1.45;68.03
60465;BME280;46314;52.392;9.758;2023-02-28T04:21:44;102401.47;;;1.47;67.69
60465;BME280;46314;52.392;9.758;2023-02-28T04:24:13;102395.56;;;1.43;67.29
60465;BME280;46314;52.392;9.758;2023-02-28T04:26:43;102404.84;;;1.49;67.11
60465;BME280;46314;52.392;9.758;2023-02-28T04:29:11;102399.69;;;1.32;67.79
60465;BME280;46314;52.392;9.758;2023-02-28T04:31:39;102403.53;;;0.95;68.82
60465;BME280;46314;52.392;9.758;2023-02-28T04:34:06;102402.47;;;1.18;68.28
60465;BME280;46314;52.392;9.758;2023-02-28T04:36:32;102403.06;;;1.35;67.44
60465;BME280;46314;52.392;9.758;2023-02-28T04:38:59;102414.13;;;1.48;67.12
60465;BME280;46314;52.392;9.758;2023-02-28T04:41:26;102405.06;;;1.26;67.68
60465;BME280;46314;52.392;9.758;2023-02-28T04:43:58;102412.94;;;1.14;67.91
60465;BME280;46314;52.392;9.758;2023-02-28T04:46:25;102409.22;;;1.43;66.90
60465;BME280;46314;52.392;9.758;2023-02-28T04:48:51;102409.81;;;1.39;67.10
60465;BME280;46314;52.392;9.758;2023-02-28T04:51:18;102405.47;;;1.23;67.24
60465;BME280;46314;52.392;9.758;2023-02-28T04:53:45;102417.63;;;0.99;67.94
60465;BME280;46314;52.392;9.758;2023-02-28T04:56:13;102413.00;;;0.99;67.79
60465;BME280;46314;52.392;9.758;2023-02-28T04:58:40;102410.78;;;0.88;67.86
60465;BME280;46314;52.392;9.758;2023-02-28T05:01:17;102414.19;;;1.11;68.08
60465;BME280;46314;52.392;9.758;2023-02-28T05:03:43;102401.91;;;0.64;68.20
60465;BME280;46314;52.392;9.758;2023-02-28T05:06:10;102410.28;;;0.78;68.08
60465;BME280;46314;52.392;9.758;2023-02-28T05:08:37;102399.69;;;0.53;69.27
60465;BME280;46314;52.392;9.758;2023-02-28T05:11:06;102407.75;;;0.98;67.75
60465;BME280;46314;52.392;9.758;2023-02-28T05:13:32;102404.69;;;1.07;67.81
60465;BME280;46314;52.392;9.758;2023-02-28T05:15:59;102411.19;;;1.06;67.32
60465;BME280;46314;52.392;9.758;2023-02-28T05:18:26;102403.56;;;0.29;69.30
60465;BME280;46314;52.392;9.758;2023-02-28T05:20:53;102404.47;;;0.51;68.20
60465;BME280;46314;52.392;9.758;2023-02-28T05:23:21;102409.25;;;0.64;68.28
60465;BME280;46314;52.392;9.758;2023-02-28T05:25:48;102402.41;;;0.53;68.85
60465;BME280;46314;52.392;9.758;2023-02-28T05:28:15;102414.13;;;1.05;67.59
60465;BME280;46314;52.392;9.758;2023-02-28T05:30:41;102405.22;;;0.60;67.72
60465;BME280;46314;52.392;9.758;2023-02-28T05:33:10;102407.28;;;0.94;67.98
60465;BME280;46314;52.392;9.758;2023-02-28T05:35:39;102408.50;;;0.91;67.75
60465;BME280;46314;52.392;9.758;2023-02-28T05:38:05;102418.38;;;1.07;66.91
60465;BME280;46314;52.392;9.758;2023-02-28T05:40:32;102413.72;;;1.08;66.57
60465;BME280;46314;52.392;9.758;2023-02-28T05:42:58;102427.69;;;-0.43;70.85
60465;BME280;46314;52.392;9.758;2023-02-28T05:45:25;102438.63;;;-0.66;71.67
60465;BME280;46314;52.392;9.758;2023-02-28T05:47:53;102440.47;;;-0.43;72.02
60465;BME280;46314;52.392;9.758;2023-02-28T05:50:20;102430.50;;;-0.51;71.32
60465;BME280;46314;52.392;9.758;2023-02-28T05:52:50;102441.13;;;-0.41;70.09
60465;BME280;46314;52.392;9.758;2023-02-28T05:55:16;102431.47;;;-0.44;71.12
60465;BME280;46314;52.392;9.758;2023-02-28T05:57:43;102443.13;;;-0.35;70.31
60465;BME280;46314;52.392;9.758;2023-02-28T06:00:10;102439.03;;;0.44;68.97
60465;BME280;46314;52.392;9.758;2023-02-28T06:02:38;102429.13;;;0.57;67.46
60465;BME280;46314;52.392;9.758;2023-02-28T06:05:07;102434.63;;;0.28;68.55
60465;BME280;46314;52.392;9.758;2023-02-28T06:07:34;102434.22;;;0.61;67.58
60465;BME280;46314;52.392;9.758;2023-02-28T06:10:02;102438.75;;;0.53;67.71
60465;BME280;46314;52.392;9.758;2023-02-28T06:12:28;102429.44;;;0.48;67.10
60465;BME280;46314;52.392;9.758;2023-02-28T06:14:55;102446.34;;;0.58;67.44
60465;BME280;46314;52.392;9.758;2023-02-28T06:17:21;102434.22;;;0.61;66.75
60465;BME280;46314;52.392;9.758;2023-02-28T06:19:48;102440.63;;;0.53;67.65
60465;BME280;46314;52.392;9.758;2023-02-28T06:22:14;102445.41;;;0.51;66.71
60465;BME280;46314;52.392;9.758;2023-02-28T06:24:40;102448.53;;;0.33;68.27
60465;BME280;46314;52.392;9.758;2023-02-28T06:27:08;102449.94;;;0.59;66.64
60465;BME280;46314;52.392;9.758;2023-02-28T06:29:35;102449.38;;;0.33;67.72
60465;BME280;46314;52.392;9.758;2023-02-28T06:32:01;102454.09;;;0.91;66.34
60465;BME280;46314;52.392;9.758;2023-02-28T06:34:28;102451.75;;;0.51;66.98
60465;BME280;46314;52.392;9.758;2023-02-28T06:36:54;102459.06;;;0.66;66.58
60465;BME280;46314;52.392;9.758;2023-02-28T06:39:21;102457.03;;;0.38;67.96
60465;BME280;46314;52.392;9.758;2023-02-28T06:41:47;102464.63;;;0.72;67.24
60465;BME280;46314;52.392;9.758;2023-02-28T06:44:23;102458.63;;;0.99;66.05
60465;BME280;46314;52.392;9.758;2023-02-28T06:46:49;102466.84;;;0.84;66.30
60465;BME280;46314;52.392;9.758;2023-02-28T06:49:16;102471.28;;;0.70;67.40
60465;BME280;46314;52.392;9.758;2023-02-28T06:51:44;102469.59;;;1.05;64.94
60465;BME280;46314;52.392;9.758;2023-02-28T06:54:11;102470.44;;;0.69;67.06
60465;BME280;46314;52.392;9.758;2023-02-28T06:56:38;102462.09;;;1.07;66.50
60465;BME280;46314;52.392;9.758;2023-02-28T06:59:05;102466.94;;;0.90;67.14
60465;BME280;46314;52.392;9.758;2023-02-28T07:01:32;102472.41;;;1.12;66.22
60465;BME280;46314;52.392;9.758;2023-02-28T07:03:59;102473.75;;;0.65;66.61
60465;BME280;46314;52.392;9.758;2023-02-28T07:06:26;102469.75;;;0.97;66.55
60465;BME280;46314;52.392;9.758;2023-02-28T07:08:53;102477.31;;;1.17;65.73
60465;BME280;46314;52.392;9.758;2023-02-28T07:11:20;102478.53;;;1.14;66.51
60465;BME280;46314;52.392;9.758;2023-02-28T07:13:47;102482.50;;;0.75;67.07
60465;BME280;46314;52.392;9.758;2023-02-28T07:16:13;102481.69;;;1.32;65.94
60465;BME280;46314;52.392;9.758;2023-02-28T07:18:41;102484.34;;;1.69;64.81
60465;BME280;46314;52.392;9.758;2023-02-28T07:21:09;102481.31;;;1.36;65.38
60465;BME280;46314;52.392;9.758;2023-02-28T07:23:38;102488.63;;;1.13;66.75
60465;BME280;46314;52.392;9.758;2023-02-28T07:26:04;102494.56;;;0.21;69.03
60465;BME280;46314;52.392;9.758;2023-02-28T07:28:31;102492.06;;;0.86;68.81
60465;BME280;46314;52.392;9.758;2023-02-28T07:31:03;102499.72;;;1.27;66.63
60465;BME280;46314;52.392;9.758;2023-02-28T07:33:29;102497.56;;;1.65;65.22
60465;BME280;46314;52.392;9.758;2023-02-28T07:36:01;102495.53;;;1.31;66.22
60465;BME280;46314;52.392;9.758;2023-02-28T07:38:27;102498.78;;;1.84;64.96
60465;BME280;46314;52.392;9.758;2023-02-28T07:40:54;102489.16;;;1.95;64.39
60465;BME280;46314;52.392;9.758;2023-02-28T07:43:20;102496.50;;;1.66;64.83
60465;BME280;46314;52.392;9.758;2023-02-28T07:45:46;102502.50;;;1.77;64.74
60465;BME280;46314;52.392;9.758;2023-02-28T07:48:13;102506.25;;;1.76;64.86
60465;BME280;46314;52.392;9.758;2023-02-28T07:50:39;102499.22;;;1.88;64.38
60465;BME280;46314;52.392;9.758;2023-02-28T07:53:07;102496.72;;;1.93;64.03
60465;BME280;46314;52.392;9.758;2023-02-28T07:55:33;102500.44;;;1.57;64.05
60465;BME280;46314;52.392;9.758;2023-02-28T07:58:00;102496.75;;;1.07;65.12
60465;BME280;46314;52.392;9.758;2023-02-28T08:00:26;102486.31;;;0.96;65.57
60465;BME280;46314;52.392;9.758;2023-02-28T08:02:53;102489.34;;;0.86;65.98
60465;BME280;46314;52.392;9.758;2023-02-28T08:05:19;102487.63;;;1.00;65.99
60465;BME280;46314;52.392;9.758;2023-02-28T08:07:48;102487.97;;;1.11;65.85
60465;BME280;46314;52.392;9.758;2023-02-28T08:10:16;102487.97;;;1.11;65.60
60465;BME280;46314;52.392;9.758;2023-02-28T08:12:43;102488.59;;;1.50;64.46
60465;BME280;46314;52.392;9.758;2023-02-28T08:15:10;102486.91;;;2.27;62.49
60465;BME280;46314;52.392;9.758;2023-02-28T08:17:36;102487.91;;;1.26;63.75
60465;BME280;46314;52.392;9.758;2023-02-28T08:20:04;102493.25;;;1.56;63.61
60465;BME280;46314;52.392;9.758;2023-02-28T08:22:30;102491.97;;;0.94;65.14
60465;BME280;46314;52.392;9.758;2023-02-28T08:24:57;102497.38;;;1.45;63.93
60465;BME280;46314;52.392;9.758;2023-02-28T08:27:24;102503.00;;;0.86;66.03
60465;BME280;46314;52.392;9.758;2023-02-28T08:29:51;102495.16;;;1.56;64.09
60465;BME280;46314;52.392;9.758;2023-02-28T08:32:17;102500.69;;;1.62;62.91
60465;BME280;46314;52.392;9.758;2023-02-28T08:34:55;102501.63;;;1.48;63.96
60465;BME280;46314;52.392;9.758;2023-02-28T08:37:21;102503.44;;;1.62;62.72
60465;BME280;46314;52.392;9.758;2023-02-28T08:39:48;102504.00;;;1.58;62.59
60465;BME280;46314;52.392;9.758;2023-02-28T08:42:14;102497.22;;;1.75;62.88
60465;BME280;46314;52.392;9.758;2023-02-28T08:44:42;102506.28;;;1.54;63.22
60465;BME280;46314;52.392;9.758;2023-02-28T08:47:08;102497.16;;;1.68;62.38
60465;BME280;46314;52.392;9.758;2023-02-28T08:49:36;102505.94;;;2.14;61.51
60465;BME280;46314;52.392;9.758;2023-02-28T08:52:02;102501.13;;;2.16;60.32
60465;BME280;46314;52.392;9.758;2023-02-28T08:54:29;102506.25;;;2.60;59.84
60465;BME280;46314;52.392;9.758;2023-02-28T08:56:55;102507.47;;;1.66;61.94
60465;BME280;46314;52.392;9.758;2023-02-28T08:59:22;102510.03;;;1.96;61.68
60465;BME280;46314;52.392;9.758;2023-02-28T09:01:49;102518.63;;;1.93;60.75
60465;BME280;46314;52.392;9.758;2023-02-28T09:04:16;102516.59;;;2.30;59.99
60465;BME280;46314;52.392;9.758;2023-02-28T09:06:45;102509.50;;;2.42;59.11
60465;BME280;46314;52.392;9.758;2023-02-28T09:09:12;102512.31;;;2.21;59.40
60465;BME280;46314;52.392;9.758;2023-02-28T09:11:38;102521.97;;;2.45;59.05
60465;BME280;46314;52.392;9.758;2023-02-28T09:14:05;102515.72;;;2.58;57.74
60465;BME280;46314;52.392;9.758;2023-02-28T09:16:32;102515.31;;;2.26;59.05
60465;BME280;46314;52.392;9.758;2023-02-28T09:19:01;102516.75;;;2.22;58.47
60465;BME280;46314;52.392;9.758;2023-02-28T09:21:28;102512.31;;;2.21;58.49
60465;BME280;46314;52.392;9.758;2023-02-28T09:23:55;102505.03;;;2.35;58.37
60465;BME280;46314;52.392;9.758;2023-02-28T09:26:23;102511.59;;;2.40;58.36
60465;BME280;46314;52.392;9.758;2023-02-28T09:28:51;102506.97;;;2.41;58.45
60465;BME280;46314;52.392;9.758;2023-02-28T09:31:20;102505.34;;;2.53;57.86
60465;BME280;46314;52.392;9.758;2023-02-28T09:33:48;102498.13;;;2.80;57.87
60465;BME280;46314;52.392;9.758;2023-02-28T09:36:16;102507.06;;;2.96;57.25
60465;BME280;46314;52.392;9.758;2023-02-28T09:38:42;102520.06;;;2.45;58.65
60465;BME280;46314;52.392;9.758;2023-02-28T09:41:14;102512.19;;;2.64;58.47
60465;BME280;46314;52.392;9.758;2023-02-28T09:43:45;102508.63;;;2.70;57.27
60465;BME280;46314;52.392;9.758;2023-02-28T09:46:27;102508.28;;;2.45;57.96
60465;BME280;46314;52.392;9.758;2023-02-28T09:48:55;102511.13;;;2.65;57.64
60465;BME280;46314;52.392;9.758;2023-02-28T09:51:33;102510.91;;;3.08;56.88
60465;BME280;46314;52.392;9.758;2023-02-28T09:54:01;102504.78;;;3.13;56.66
60465;BME280;46314;52.392;9.758;2023-02-28T09:56:33;102507.59;;;3.33;55.94
60465;BME280;46314;52.392;9.758;2023-02-28T09:59:05;102504.50;;;2.94;55.66
60465;BME280;46314;52.392;9.758;2023-02-28T10:01:39;102505.88;;;3.32;55.38
60465;BME280;46314;52.392;9.758;2023-02-28T10:04:15;102504.88;;;3.53;54.96
60465;BME280;46314;52.392;9.758;2023-02-28T10:06:46;102506.97;;;3.31;55.60
60465;BME280;46314;52.392;9.758;2023-02-28T10:09:17;102506.06;;;3.17;55.82
60465;BME280;46314;52.392;9.758;2023-02-28T10:11:45;102506.88;;;3.11;55.39
60465;BME280;46314;52.392;9.758;2023-02-28T10:14:20;102501.06;;;3.60;54.18
60465;BME280;46314;52.392;9.758;2023-02-28T10:16:50;102509.91;;;3.42;53.63
60465;BME280;46314;52.392;9.758;2023-02-28T10:19:20;102508.03;;;3.56;52.24
60465;BME280;46314;52.392;9.758;2023-02-28T10:21:53;102505.50;;;3.41;52.27
60465;BME280;46314;52.392;9.758;2023-02-28T10:24:27;102506.75;;;3.39;51.91
60465;BME280;46314;52.392;9.758;2023-02-28T10:27:06;102511.44;;;3.85;51.09
60465;BME280;46314;52.392;9.758;2023-02-28T10:29:40;102496.47;;;3.81;51.44
60465;BME280;46314;52.392;9.758;2023-02-28T10:32:11;102494.78;;;3.80;51.41
60465;BME280;46314;52.392;9.758;2023-02-28T10:34:40;102498.56;;;3.79;49.82
60465;BME280;46314;52.392;9.758;2023-02-28T10:37:09;102496.44;;;4.14;47.78
60465;BME280;46314;52.392;9.758;2023-02-28T10:39:37;102498.22;;;4.67;46.55
60465;BME280;46314;52.392;9.758;2023-02-28T10:42:04;102499.81;;;3.50;47.85
60465;BME280;46314;52.392;9.758;2023-02-28T10:44:31;102506.59;;;3.81;46.51
60465;BME280;46314;52.392;9.758;2023-02-28T10:46:58;102499.84;;;3.76;47.22
60465;BME280;46314;52.392;9.758;2023-02-28T10:49:27;102496.88;;;3.78;47.83
60465;BME280;46314;52.392;9.758;2023-02-28T10:51:56;102493.91;;;4.33;47.32
60465;BME280;46314;52.392;9.758;2023-02-28T10:54:27;102501.94;;;4.08;47.27
60465;BME280;46314;52.392;9.758;2023-02-28T10:57:15;102499.41;;;3.73;48.45
60465;BME280;46314;52.392;9.758;2023-02-28T10:59:41;102498.31;;;4.34;46.71
60465;BME280;46314;52.392;9.758;2023-02-28T11:02:30;102488.94;;;4.62;46.03
60465;BME280;46314;52.392;9.758;2023-02-28T11:04:57;102494.09;;;5.03;45.43
60465;BME280;46314;52.392;9.758;2023-02-28T11:07:25;102492.16;;;5.10;45.29
60465;BME280;46314;52.392;9.758;2023-02-28T11:09:58;102491.53;;;5.72;42.39
60465;BME280;46314;52.392;9.758;2023-02-28T11:12:27;102490.00;;;4.67;44.48
60465;BME280;46314;52.392;9.758;2023-02-28T11:14:58;102484.38;;;4.29;43.62
60465;BME280;46314;52.392;9.758;2023-02-28T11:17:27;102478.06;;;5.32;41.99
60465;BME280;46314;52.392;9.758;2023-02-28T11:19:56;102458.34;;;5.35;42.07
60465;BME280;46314;52.392;9.758;2023-02-28T11:22:25;102471.31;;;4.89;43.15
60465;BME280;46314;52.392;9.758;2023-02-28T11:24:53;102473.06;;;5.16;42.72
60465;BME280;46314;52.392;9.758;2023-02-28T11:27:47;102476.81;;;4.89;43.69
60465;BME280;46314;52.392;9.758;2023-02-28T11:30:40;102473.75;;;5.68;42.96
60465;BME280;46314;52.392;9.758;2023-02-28T11:33:26;102471.03;;;4.98;44.01
60465;BME280;46314;52.392;9.758;2023-02-28T11:35:57;102462.31;;;5.07;43.68
60465;BME280;46314;52.392;9.758;2023-02-28T11:38:25;102467.69;;;4.89;44.50
60465;BME280;46314;52.392;9.758;2023-02-28T11:41:05;102468.56;;;5.60;43.23
60465;BME280;46314;52.392;9.758;2023-02-28T11:43:47;102461.94;;;5.36;43.87
60465;BME280;46314;52.392;9.758;2023-02-28T11:46:20;102459.50;;;5.53;43.31
60465;BME280;46314;52.392;9.758;2023-02-28T11:48:58;102463.47;;;5.57;43.26
60465;BME280;46314;52.392;9.758;2023-02-28T11:51:32;102457.97;;;5.57;44.28
60465;BME280;46314;52.392;9.758;2023-02-28T11:54:18;102469.41;;;4.83;45.94
60465;BME280;46314;52.392;9.758;2023-02-28T11:56:53;102448.63;;;4.94;45.42
60465;BME280;46314;52.392;9.758;2023-02-28T11:59:36;102462.44;;;5.26;44.67
60465;BME280;46314;52.392;9.758;2023-02-28T12:02:23;102458.06;;;5.75;44.52
60465;BME280;46314;52.392;9.758;2023-02-28T12:04:57;102453.59;;;6.24;42.80
60465;BME280;46314;52.392;9.758;2023-02-28T12:07:33;102449.28;;;5.60;44.42
60465;BME280;46314;52.392;9.758;2023-02-28T12:10:09;102458.56;;;5.65;44.28
60465;BME280;46314;52.392;9.758;2023-02-28T12:12:44;102452.78;;;5.99;44.04
60465;BME280;46314;52.392;9.758;2023-02-28T12:15:24;102452.09;;;5.78;45.35
60465;BME280;46314;52.392;9.758;2023-02-28T12:18:05;102439.66;;;5.69;46.18
60465;BME280;46314;52.392;9.758;2023-02-28T12:20:37;102439.72;;;6.31;44.88
60465;BME280;46314;52.392;9.758;2023-02-28T12:23:22;102434.81;;;5.96;44.90
60465;BME280;46314;52.392;9.758;2023-02-28T12:26:03;102442.03;;;5.08;47.30
60465;BME280;46314;52.392;9.758;2023-02-28T12:28:34;102436.78;;;5.00;47.30
60465;BME280;46314;52.392;9.758;2023-02-28T12:31:04;102445.50;;;5.22;46.79
60465;BME280;46314;52.392;9.758;2023-02-28T12:33:39;102436.88;;;5.76;45.88
60465;BME280;46314;52.392;9.758;2023-02-28T12:36:10;102426.00;;;6.80;44.13
60465;BME280;46314;52.392;9.758;2023-02-28T12:38:40;102436.34;;;5.35;46.63
60465;BME280;46314;52.392;9.758;2023-02-28T12:41:12;102424.13;;;4.92;47.81
60465;BME280;46314;52.392;9.758;2023-02-28T12:43:43;102420.34;;;4.87;48.38
60465;BME280;46314;52.392;9.758;2023-02-28T12:46:14;102420.28;;;5.00;47.69
60465;BME280;46314;52.392;9.758;2023-02-28T12:48:46;102421.28;;;5.38;46.97
60465;BME280;46314;52.392;9.758;2023-02-28T12:51:15;102422.13;;;4.68;48.04
60465;BME280;46314;52.392;9.758;2023-02-28T12:53:52;102413.16;;;5.49;46.50
60465;BME280;46314;52.392;9.758;2023-02-28T12:56:31;102410.25;;;5.12;47.30
60465;BME280;46314;52.392;9.758;2023-02-28T12:59:01;102412.56;;;5.16;46.98
60465;BME280;46314;52.392;9.758;2023-02-28T13:04:41;102393.91;;;4.86;47.33
60465;BME280;46314;52.392;9.758;2023-02-28T13:07:39;102392.75;;;5.32;46.09
60465;BME280;46314;52.392;9.758;2023-02-28T13:10:09;102381.34;;;5.28;46.20
60465;BME280;46314;52.392;9.758;2023-02-28T13:12:47;102378.81;;;5.02;46.27
60465;BME280;46314;52.392;9.758;2023-02-28T13:15:18;102373.56;;;4.55;47.07
60465;BME280;46314;52.392;9.758;2023-02-28T13:17:48;102374.69;;;4.41;47.67